sensor_id;sensor_type;location;lat;lon;timestamp;P1;durP1;ratioP1;P2;durP2;ratioP2
35294;SDS011;21413;48.032;7.764;2022-09-01T00:02:11;10.13;;;8.53;;
35294;SDS011;21413;48.032;7.764;2022-09-01T00:04:39;9.10;;;8.27;;
35294;SDS011;21413;48.032;7.764;2022-09-01T00:07:05;13.10;;;8.90;;
35294;SDS011;21413;48.032;7.764;2022-09-01T00:09:32;14.40;;;9.70;;
35294;SDS011;21413;48.032;7.764;2022-09-01T00:11:58;12.60;;;8.93;;
35294;SDS011;21413;48.032;7.764;2022-09-01T00:14:26;9.30;;;8.63;;
35294;SDS011;21413;48.032;7.764;2022-09-01T00:16:53;12.03;;;8.63;;
35294;SDS011;21413;48.032;7.764;2022-09-01T00:19:20;10.47;;;9.40;;
35294;SDS011;21413;48.032;7.764;2022-09-01T00:21:46;9.87;;;8.97;;
35294;SDS011;21413;48.032;7.764;2022-09-01T00:24:13;9.40;;;8.70;;
35294;SDS011;21413;48.032;7.764;2022-09-01T00:26:39;10.50;;;9.33;;
35294;SDS011;21413;48.032;7.764;2022-09-01T00:29:05;8.23;;;7.37;;
35294;SDS011;21413;48.032;7.764;2022-09-01T00:31:31;9.87;;;8.57;;
35294;SDS011;21413;48.032;7.764;2022-09-01T00:33:57;9.30;;;7.80;;
35294;SDS011;21413;48.032;7.764;2022-09-01T00:36:23;9.03;;;7.77;;
35294;SDS011;21413;48.032;7.764;2022-09-01T00:38:49;13.73;;;8.80;;
35294;SDS011;21413;48.032;7.764;2022-09-01T00:41:16;10.83;;;8.47;;
35294;SDS011;21413;48.032;7.764;2022-09-01T00:43:53;8.30;;;7.60;;
35294;SDS011;21413;48.032;7.764;2022-09-01T00:49:08;10.33;;;8.17;;
35294;SDS011;21413;48.032;7.764;2022-09-01T00:51:32;9.30;;;8.40;;
35294;SDS011;21413;48.032;7.764;2022-09-01T00:53:59;14.27;;;8.07;;
35294;SDS011;21413;48.032;7.764;2022-09-01T00:56:26;11.40;;;8.37;;
35294;SDS011;21413;48.032;7.764;2022-09-01T00:58:53;9.10;;;8.30;;
35294;SDS011;21413;48.032;7.764;2022-09-01T01:01:20;13.67;;;8.33;;
35294;SDS011;21413;48.032;7.764;2022-09-01T01:03:47;8.63;;;7.87;;
35294;SDS011;21413;48.032;7.764;2022-09-01T01:06:14;9.10;;;8.30;;
35294;SDS011;21413;48.032;7.764;2022-09-01T01:08:42;14.43;;;8.57;;
35294;SDS011;21413;48.032;7.764;2022-09-01T01:11:14;11.20;;;8.07;;
35294;SDS011;21413;48.032;7.764;2022-09-01T01:13:53;8.63;;;8.03;;
35294;SDS011;21413;48.032;7.764;2022-09-01T01:16:20;10.00;;;8.30;;
35294;SDS011;21413;48.032;7.764;2022-09-01T01:18:46;13.23;;;9.53;;
35294;SDS011;21413;48.032;7.764;2022-09-01T01:21:22;10.67;;;8.27;;
35294;SDS011;21413;48.032;7.764;2022-09-01T01:24:22;9.43;;;8.73;;
35294;SDS011;21413;48.032;7.764;2022-09-01T01:26:48;8.40;;;8.00;;
35294;SDS011;21413;48.032;7.764;2022-09-01T01:29:15;8.87;;;8.10;;
35294;SDS011;21413;48.032;7.764;2022-09-01T01:31:41;8.90;;;8.00;;
35294;SDS011;21413;48.032;7.764;2022-09-01T01:34:07;11.53;;;8.80;;
35294;SDS011;21413;48.032;7.764;2022-09-01T01:36:34;9.80;;;8.90;;
35294;SDS011;21413;48.032;7.764;2022-09-01T01:39:20;10.17;;;8.73;;
35294;SDS011;21413;48.032;7.764;2022-09-01T01:41:47;9.43;;;8.40;;
35294;SDS011;21413;48.032;7.764;2022-09-01T01:44:15;10.83;;;7.90;;
35294;SDS011;21413;48.032;7.764;2022-09-01T01:46:44;9.33;;;8.40;;
35294;SDS011;21413;48.032;7.764;2022-09-01T01:49:11;9.53;;;7.43;;
35294;SDS011;21413;48.032;7.764;2022-09-01T01:51:39;9.77;;;8.90;;
35294;SDS011;21413;48.032;7.764;2022-09-01T01:54:05;9.10;;;8.30;;
35294;SDS011;21413;48.032;7.764;2022-09-01T01:56:32;10.40;;;9.53;;
35294;SDS011;21413;48.032;7.764;2022-09-01T01:59:02;9.70;;;8.77;;
35294;SDS011;21413;48.032;7.764;2022-09-01T02:01:28;12.40;;;9.37;;
35294;SDS011;21413;48.032;7.764;2022-09-01T02:03:56;11.53;;;8.93;;
35294;SDS011;21413;48.032;7.764;2022-09-01T02:06:23;10.37;;;9.47;;
35294;SDS011;21413;48.032;7.764;2022-09-01T02:08:50;10.20;;;9.30;;
35294;SDS011;21413;48.032;7.764;2022-09-01T02:11:16;9.90;;;9.00;;
35294;SDS011;21413;48.032;7.764;2022-09-01T02:13:42;11.17;;;9.87;;
35294;SDS011;21413;48.032;7.764;2022-09-01T02:16:08;13.00;;;11.70;;
35294;SDS011;21413;48.032;7.764;2022-09-01T02:18:40;14.67;;;11.60;;
35294;SDS011;21413;48.032;7.764;2022-09-01T02:21:10;18.60;;;11.43;;
35294;SDS011;21413;48.032;7.764;2022-09-01T02:23:38;17.13;;;13.33;;
35294;SDS011;21413;48.032;7.764;2022-09-01T02:26:05;18.97;;;13.90;;
35294;SDS011;21413;48.032;7.764;2022-09-01T02:28:33;18.07;;;14.43;;
35294;SDS011;21413;48.032;7.764;2022-09-01T02:31:01;19.97;;;15.43;;
35294;SDS011;21413;48.032;7.764;2022-09-01T02:33:28;21.53;;;15.30;;
35294;SDS011;21413;48.032;7.764;2022-09-01T02:35:55;17.90;;;15.40;;
35294;SDS011;21413;48.032;7.764;2022-09-01T02:38:22;22.60;;;15.07;;
35294;SDS011;21413;48.032;7.764;2022-09-01T02:40:50;22.27;;;15.50;;
35294;SDS011;21413;48.032;7.764;2022-09-01T02:43:17;18.53;;;16.60;;
35294;SDS011;21413;48.032;7.764;2022-09-01T02:45:45;16.33;;;14.60;;
35294;SDS011;21413;48.032;7.764;2022-09-01T02:48:11;17.70;;;16.00;;
35294;SDS011;21413;48.032;7.764;2022-09-01T02:50:38;18.40;;;16.70;;
35294;SDS011;21413;48.032;7.764;2022-09-01T02:53:05;20.80;;;16.13;;
35294;SDS011;21413;48.032;7.764;2022-09-01T02:55:34;17.77;;;16.00;;
35294;SDS011;21413;48.032;7.764;2022-09-01T02:58:00;17.90;;;16.13;;
35294;SDS011;21413;48.032;7.764;2022-09-01T03:00:26;19.07;;;16.70;;
35294;SDS011;21413;48.032;7.764;2022-09-01T03:02:58;21.07;;;18.90;;
35294;SDS011;21413;48.032;7.764;2022-09-01T03:05:25;23.30;;;17.73;;
35294;SDS011;21413;48.032;7.764;2022-09-01T03:07:54;22.63;;;18.23;;
35294;SDS011;21413;48.032;7.764;2022-09-01T03:10:33;18.67;;;15.90;;
35294;SDS011;21413;48.032;7.764;2022-09-01T03:13:04;20.83;;;17.67;;
35294;SDS011;21413;48.032;7.764;2022-09-01T03:15:30;22.63;;;19.70;;
35294;SDS011;21413;48.032;7.764;2022-09-01T03:17:57;24.73;;;22.13;;
35294;SDS011;21413;48.032;7.764;2022-09-01T03:20:24;27.00;;;24.10;;
35294;SDS011;21413;48.032;7.764;2022-09-01T03:22:51;26.70;;;22.07;;
35294;SDS011;21413;48.032;7.764;2022-09-01T03:25:17;30.67;;;22.03;;
35294;SDS011;21413;48.032;7.764;2022-09-01T03:27:43;43.17;;;24.90;;
35294;SDS011;21413;48.032;7.764;2022-09-01T03:30:09;30.83;;;25.67;;
35294;SDS011;21413;48.032;7.764;2022-09-01T03:32:35;28.43;;;23.97;;
35294;SDS011;21413;48.032;7.764;2022-09-01T03:35:02;32.90;;;24.07;;
35294;SDS011;21413;48.032;7.764;2022-09-01T03:37:28;29.93;;;25.47;;
35294;SDS011;21413;48.032;7.764;2022-09-01T03:39:54;28.57;;;25.10;;
35294;SDS011;21413;48.032;7.764;2022-09-01T03:42:21;31.87;;;24.63;;
35294;SDS011;21413;48.032;7.764;2022-09-01T03:44:49;29.63;;;25.93;;
35294;SDS011;21413;48.032;7.764;2022-09-01T03:47:16;28.43;;;24.30;;
35294;SDS011;21413;48.032;7.764;2022-09-01T03:49:42;31.07;;;24.90;;
35294;SDS011;21413;48.032;7.764;2022-09-01T03:52:09;29.73;;;26.63;;
35294;SDS011;21413;48.032;7.764;2022-09-01T03:54:36;30.30;;;27.10;;
35294;SDS011;21413;48.032;7.764;2022-09-01T03:57:02;30.90;;;27.07;;
35294;SDS011;21413;48.032;7.764;2022-09-01T03:59:30;31.23;;;27.53;;
35294;SDS011;21413;48.032;7.764;2022-09-01T04:01:57;36.77;;;30.80;;
35294;SDS011;21413;48.032;7.764;2022-09-01T04:04:24;43.53;;;32.20;;
35294;SDS011;21413;48.032;7.764;2022-09-01T04:06:50;45.83;;;30.50;;
35294;SDS011;21413;48.032;7.764;2022-09-01T04:09:16;37.43;;;31.40;;
35294;SDS011;21413;48.032;7.764;2022-09-01T04:11:42;42.23;;;33.17;;
35294;SDS011;21413;48.032;7.764;2022-09-01T04:14:11;37.23;;;32.60;;
35294;SDS011;21413;48.032;7.764;2022-09-01T04:16:37;43.20;;;33.37;;
35294;SDS011;21413;48.032;7.764;2022-09-01T04:19:23;42.87;;;33.73;;
35294;SDS011;21413;48.032;7.764;2022-09-01T04:21:51;44.20;;;34.57;;
35294;SDS011;21413;48.032;7.764;2022-09-01T04:24:21;49.33;;;35.10;;
35294;SDS011;21413;48.032;7.764;2022-09-01T04:26:48;52.60;;;38.00;;
35294;SDS011;21413;48.032;7.764;2022-09-01T04:29:15;54.70;;;35.60;;
35294;SDS011;21413;48.032;7.764;2022-09-01T04:31:43;46.13;;;35.60;;
35294;SDS011;21413;48.032;7.764;2022-09-01T04:34:09;54.53;;;35.70;;
35294;SDS011;21413;48.032;7.764;2022-09-01T04:36:42;47.83;;;37.00;;
35294;SDS011;21413;48.032;7.764;2022-09-01T04:39:08;49.40;;;34.37;;
35294;SDS011;21413;48.032;7.764;2022-09-01T04:41:37;64.73;;;41.83;;
35294;SDS011;21413;48.032;7.764;2022-09-01T04:44:05;50.33;;;37.90;;
35294;SDS011;21413;48.032;7.764;2022-09-01T04:46:32;54.07;;;38.77;;
35294;SDS011;21413;48.032;7.764;2022-09-01T04:48:59;53.70;;;38.07;;
35294;SDS011;21413;48.032;7.764;2022-09-01T04:51:27;54.53;;;40.10;;
35294;SDS011;21413;48.032;7.764;2022-09-01T04:53:54;53.07;;;37.70;;
35294;SDS011;21413;48.032;7.764;2022-09-01T04:56:21;45.00;;;36.13;;
35294;SDS011;21413;48.032;7.764;2022-09-01T04:58:48;52.27;;;38.40;;
35294;SDS011;21413;48.032;7.764;2022-09-01T05:01:14;55.37;;;38.20;;
35294;SDS011;21413;48.032;7.764;2022-09-01T05:03:41;49.70;;;39.13;;
35294;SDS011;21413;48.032;7.764;2022-09-01T05:06:14;51.07;;;39.17;;
35294;SDS011;21413;48.032;7.764;2022-09-01T05:08:41;49.33;;;36.77;;
35294;SDS011;21413;48.032;7.764;2022-09-01T05:11:09;52.97;;;39.77;;
35294;SDS011;21413;48.032;7.764;2022-09-01T05:13:36;44.43;;;36.57;;
35294;SDS011;21413;48.032;7.764;2022-09-01T05:16:05;45.27;;;35.73;;
35294;SDS011;21413;48.032;7.764;2022-09-01T05:18:36;40.57;;;33.67;;
35294;SDS011;21413;48.032;7.764;2022-09-01T05:21:04;40.27;;;33.37;;
35294;SDS011;21413;48.032;7.764;2022-09-01T05:23:34;45.43;;;35.33;;
35294;SDS011;21413;48.032;7.764;2022-09-01T05:26:01;44.20;;;35.37;;
35294;SDS011;21413;48.032;7.764;2022-09-01T05:28:38;42.80;;;35.57;;
35294;SDS011;21413;48.032;7.764;2022-09-01T05:31:05;46.40;;;35.50;;
35294;SDS011;21413;48.032;7.764;2022-09-01T05:33:31;36.77;;;32.83;;
35294;SDS011;21413;48.032;7.764;2022-09-01T05:36:01;44.40;;;34.10;;
35294;SDS011;21413;48.032;7.764;2022-09-01T05:38:31;39.47;;;33.73;;
35294;SDS011;21413;48.032;7.764;2022-09-01T05:40:59;45.70;;;34.60;;
35294;SDS011;21413;48.032;7.764;2022-09-01T05:43:29;37.80;;;30.93;;
35294;SDS011;21413;48.032;7.764;2022-09-01T05:45:56;37.07;;;28.50;;
35294;SDS011;21413;48.032;7.764;2022-09-01T05:48:23;35.10;;;30.60;;
35294;SDS011;21413;48.032;7.764;2022-09-01T05:50:50;38.87;;;31.47;;
35294;SDS011;21413;48.032;7.764;2022-09-01T05:53:20;43.83;;;33.70;;
35294;SDS011;21413;48.032;7.764;2022-09-01T05:55:49;49.60;;;33.10;;
35294;SDS011;21413;48.032;7.764;2022-09-01T05:58:21;39.80;;;33.53;;
35294;SDS011;21413;48.032;7.764;2022-09-01T06:00:50;44.70;;;32.93;;
35294;SDS011;21413;48.032;7.764;2022-09-01T06:03:17;39.93;;;33.00;;
35294;SDS011;21413;48.032;7.764;2022-09-01T06:05:43;31.37;;;27.87;;
35294;SDS011;21413;48.032;7.764;2022-09-01T06:08:16;37.60;;;29.40;;
35294;SDS011;21413;48.032;7.764;2022-09-01T06:10:42;29.43;;;25.70;;
35294;SDS011;21413;48.032;7.764;2022-09-01T06:13:09;34.20;;;27.00;;
35294;SDS011;21413;48.032;7.764;2022-09-01T06:15:37;33.27;;;29.67;;
35294;SDS011;21413;48.032;7.764;2022-09-01T06:18:03;35.93;;;28.80;;
35294;SDS011;21413;48.032;7.764;2022-09-01T06:20:30;34.77;;;27.10;;
35294;SDS011;21413;48.032;7.764;2022-09-01T06:22:56;35.13;;;27.67;;
35294;SDS011;21413;48.032;7.764;2022-09-01T06:25:22;38.77;;;26.53;;
35294;SDS011;21413;48.032;7.764;2022-09-01T06:27:50;27.33;;;24.53;;
35294;SDS011;21413;48.032;7.764;2022-09-01T06:30:16;27.87;;;24.97;;
35294;SDS011;21413;48.032;7.764;2022-09-01T06:32:46;30.73;;;26.27;;
35294;SDS011;21413;48.032;7.764;2022-09-01T06:35:13;28.20;;;25.20;;
35294;SDS011;21413;48.032;7.764;2022-09-01T06:37:40;30.03;;;24.57;;
35294;SDS011;21413;48.032;7.764;2022-09-01T06:40:08;43.93;;;26.67;;
35294;SDS011;21413;48.032;7.764;2022-09-01T06:42:41;28.20;;;25.07;;
35294;SDS011;21413;48.032;7.764;2022-09-01T06:45:07;29.70;;;25.37;;
35294;SDS011;21413;48.032;7.764;2022-09-01T06:47:34;31.40;;;24.00;;
35294;SDS011;21413;48.032;7.764;2022-09-01T06:50:01;25.87;;;22.53;;
35294;SDS011;21413;48.032;7.764;2022-09-01T06:52:27;28.00;;;24.50;;
35294;SDS011;21413;48.032;7.764;2022-09-01T06:54:53;30.00;;;25.80;;
35294;SDS011;21413;48.032;7.764;2022-09-01T06:57:19;27.20;;;24.40;;
35294;SDS011;21413;48.032;7.764;2022-09-01T06:59:46;29.73;;;24.87;;
35294;SDS011;21413;48.032;7.764;2022-09-01T07:02:13;22.33;;;19.73;;
35294;SDS011;21413;48.032;7.764;2022-09-01T07:04:43;26.63;;;20.17;;
35294;SDS011;21413;48.032;7.764;2022-09-01T07:07:10;31.43;;;24.13;;
35294;SDS011;21413;48.032;7.764;2022-09-01T07:09:37;29.13;;;24.13;;
35294;SDS011;21413;48.032;7.764;2022-09-01T07:12:03;28.27;;;25.17;;
35294;SDS011;21413;48.032;7.764;2022-09-01T07:14:29;29.20;;;26.10;;
35294;SDS011;21413;48.032;7.764;2022-09-01T07:16:55;27.77;;;24.37;;
35294;SDS011;21413;48.032;7.764;2022-09-01T07:19:22;26.87;;;24.03;;
35294;SDS011;21413;48.032;7.764;2022-09-01T07:21:50;28.53;;;23.07;;
35294;SDS011;21413;48.032;7.764;2022-09-01T07:24:16;25.70;;;22.97;;
35294;SDS011;21413;48.032;7.764;2022-09-01T07:26:44;26.30;;;23.50;;
35294;SDS011;21413;48.032;7.764;2022-09-01T07:29:13;25.10;;;22.37;;
35294;SDS011;21413;48.032;7.764;2022-09-01T07:31:39;25.20;;;22.67;;
35294;SDS011;21413;48.032;7.764;2022-09-01T07:34:08;23.40;;;20.90;;
35294;SDS011;21413;48.032;7.764;2022-09-01T07:36:36;26.67;;;22.17;;
35294;SDS011;21413;48.032;7.764;2022-09-01T07:39:03;27.50;;;23.43;;
35294;SDS011;21413;48.032;7.764;2022-09-01T07:41:29;23.37;;;21.10;;
35294;SDS011;21413;48.032;7.764;2022-09-01T07:43:56;25.03;;;20.63;;
35294;SDS011;21413;48.032;7.764;2022-09-01T07:46:24;24.83;;;22.23;;
35294;SDS011;21413;48.032;7.764;2022-09-01T07:48:54;25.80;;;21.37;;
35294;SDS011;21413;48.032;7.764;2022-09-01T07:51:20;24.10;;;21.53;;
35294;SDS011;21413;48.032;7.764;2022-09-01T07:53:47;24.10;;;21.60;;
35294;SDS011;21413;48.032;7.764;2022-09-01T07:56:15;23.13;;;20.63;;
35294;SDS011;21413;48.032;7.764;2022-09-01T07:58:43;26.97;;;21.10;;
35294;SDS011;21413;48.032;7.764;2022-09-01T08:01:16;20.70;;;18.70;;
35294;SDS011;21413;48.032;7.764;2022-09-01T08:03:46;22.10;;;19.90;;
35294;SDS011;21413;48.032;7.764;2022-09-01T08:06:14;22.70;;;20.43;;
35294;SDS011;21413;48.032;7.764;2022-09-01T08:08:44;20.87;;;18.77;;
35294;SDS011;21413;48.032;7.764;2022-09-01T08:11:14;24.67;;;18.83;;
35294;SDS011;21413;48.032;7.764;2022-09-01T08:13:41;20.50;;;18.50;;
35294;SDS011;21413;48.032;7.764;2022-09-01T08:16:08;22.10;;;19.73;;
35294;SDS011;21413;48.032;7.764;2022-09-01T08:18:34;24.27;;;19.10;;
35294;SDS011;21413;48.032;7.764;2022-09-01T08:21:04;19.93;;;17.83;;
35294;SDS011;21413;48.032;7.764;2022-09-01T08:23:30;19.53;;;17.43;;
35294;SDS011;21413;48.032;7.764;2022-09-01T08:25:56;19.63;;;17.77;;
35294;SDS011;21413;48.032;7.764;2022-09-01T08:28:22;20.87;;;17.10;;
35294;SDS011;21413;48.032;7.764;2022-09-01T08:30:48;19.63;;;16.97;;
35294;SDS011;21413;48.032;7.764;2022-09-01T08:33:14;19.17;;;16.37;;
35294;SDS011;21413;48.032;7.764;2022-09-01T08:35:41;15.53;;;14.20;;
35294;SDS011;21413;48.032;7.764;2022-09-01T08:38:08;17.27;;;15.57;;
35294;SDS011;21413;48.032;7.764;2022-09-01T08:40:34;16.53;;;14.77;;
35294;SDS011;21413;48.032;7.764;2022-09-01T08:45:30;16.50;;;15.00;;
35294;SDS011;21413;48.032;7.764;2022-09-01T08:48:00;16.47;;;14.93;;
35294;SDS011;21413;48.032;7.764;2022-09-01T08:50:27;18.27;;;16.57;;
35294;SDS011;21413;48.032;7.764;2022-09-01T08:52:55;14.83;;;13.63;;
35294;SDS011;21413;48.032;7.764;2022-09-01T08:55:37;16.27;;;14.77;;
35294;SDS011;21413;48.032;7.764;2022-09-01T08:58:04;15.80;;;14.30;;
35294;SDS011;21413;48.032;7.764;2022-09-01T09:00:32;20.80;;;15.77;;
35294;SDS011;21413;48.032;7.764;2022-09-01T09:08:26;15.60;;;14.03;;
35294;SDS011;21413;48.032;7.764;2022-09-01T09:11:01;15.87;;;14.30;;
35294;SDS011;21413;48.032;7.764;2022-09-01T09:16:34;16.60;;;14.97;;
35294;SDS011;21413;48.032;7.764;2022-09-01T09:19:03;15.30;;;13.90;;
35294;SDS011;21413;48.032;7.764;2022-09-01T09:21:37;18.77;;;16.43;;
35294;SDS011;21413;48.032;7.764;2022-09-01T09:26:35;15.73;;;14.10;;
35294;SDS011;21413;48.032;7.764;2022-09-01T09:29:02;16.13;;;14.43;;
35294;SDS011;21413;48.032;7.764;2022-09-01T09:31:37;14.93;;;13.53;;
35294;SDS011;21413;48.032;7.764;2022-09-01T09:36:42;13.33;;;12.13;;
35294;SDS011;21413;48.032;7.764;2022-09-01T09:39:11;13.37;;;12.07;;
35294;SDS011;21413;48.032;7.764;2022-09-01T09:41:40;11.63;;;10.57;;
35294;SDS011;21413;48.032;7.764;2022-09-01T09:46:36;11.90;;;10.83;;
35294;SDS011;21413;48.032;7.764;2022-09-01T09:51:31;10.43;;;9.73;;
35294;SDS011;21413;48.032;7.764;2022-09-01T09:54:10;10.03;;;9.33;;
35294;SDS011;21413;48.032;7.764;2022-09-01T09:56:40;10.60;;;9.63;;
35294;SDS011;21413;48.032;7.764;2022-09-01T10:01:46;13.67;;;12.40;;
35294;SDS011;21413;48.032;7.764;2022-09-01T10:04:17;11.87;;;10.90;;
35294;SDS011;21413;48.032;7.764;2022-09-01T10:06:55;11.70;;;10.70;;
35294;SDS011;21413;48.032;7.764;2022-09-01T10:11:51;11.80;;;10.77;;
35294;SDS011;21413;48.032;7.764;2022-09-01T10:14:21;10.60;;;9.73;;
35294;SDS011;21413;48.032;7.764;2022-09-01T10:16:49;10.43;;;9.63;;
35294;SDS011;21413;48.032;7.764;2022-09-01T10:19:17;10.10;;;9.40;;
35294;SDS011;21413;48.032;7.764;2022-09-01T10:21:44;9.50;;;8.90;;
35294;SDS011;21413;48.032;7.764;2022-09-01T10:24:15;8.27;;;7.57;;
35294;SDS011;21413;48.032;7.764;2022-09-01T10:26:43;8.73;;;8.07;;
35294;SDS011;21413;48.032;7.764;2022-09-01T10:29:13;7.37;;;6.87;;
35294;SDS011;21413;48.032;7.764;2022-09-01T10:31:40;7.77;;;7.27;;
35294;SDS011;21413;48.032;7.764;2022-09-01T10:34:07;8.77;;;8.07;;
35294;SDS011;21413;48.032;7.764;2022-09-01T10:36:36;8.77;;;8.10;;
35294;SDS011;21413;48.032;7.764;2022-09-01T10:39:03;9.03;;;7.77;;
35294;SDS011;21413;48.032;7.764;2022-09-01T10:44:08;7.13;;;6.63;;
35294;SDS011;21413;48.032;7.764;2022-09-01T10:49:12;6.70;;;6.37;;
35294;SDS011;21413;48.032;7.764;2022-09-01T10:51:44;7.23;;;6.50;;
35294;SDS011;21413;48.032;7.764;2022-09-01T10:54:47;7.20;;;6.67;;
35294;SDS011;21413;48.032;7.764;2022-09-01T10:56:56;6.80;;;6.50;;
35294;SDS011;21413;48.032;7.764;2022-09-01T10:59:25;6.30;;;6.00;;
35294;SDS011;21413;48.032;7.764;2022-09-01T11:04:19;7.03;;;5.30;;
35294;SDS011;21413;48.032;7.764;2022-09-01T11:09:41;3.90;;;3.80;;
35294;SDS011;21413;48.032;7.764;2022-09-01T11:12:19;5.17;;;4.80;;
35294;SDS011;21413;48.032;7.764;2022-09-01T11:14:52;4.60;;;4.20;;
35294;SDS011;21413;48.032;7.764;2022-09-01T11:25:06;4.03;;;3.83;;
35294;SDS011;21413;48.032;7.764;2022-09-01T11:33:01;5.47;;;4.30;;
35294;SDS011;21413;48.032;7.764;2022-09-01T11:35:30;4.63;;;4.30;;
35294;SDS011;21413;48.032;7.764;2022-09-01T11:38:00;3.50;;;3.30;;
35294;SDS011;21413;48.032;7.764;2022-09-01T11:40:28;4.93;;;3.80;;
35294;SDS011;21413;48.032;7.764;2022-09-01T11:42:55;4.07;;;3.87;;
35294;SDS011;21413;48.032;7.764;2022-09-01T11:45:26;3.97;;;3.87;;
35294;SDS011;21413;48.032;7.764;2022-09-01T11:47:55;4.37;;;4.00;;
35294;SDS011;21413;48.032;7.764;2022-09-01T11:50:29;4.10;;;3.93;;
35294;SDS011;21413;48.032;7.764;2022-09-01T11:52:57;3.90;;;3.70;;
35294;SDS011;21413;48.032;7.764;2022-09-01T11:55:28;3.50;;;3.37;;
35294;SDS011;21413;48.032;7.764;2022-09-01T11:57:54;3.70;;;3.60;;
35294;SDS011;21413;48.032;7.764;2022-09-01T12:00:29;3.80;;;3.80;;
35294;SDS011;21413;48.032;7.764;2022-09-01T12:02:55;3.87;;;3.77;;
35294;SDS011;21413;48.032;7.764;2022-09-01T12:05:31;3.50;;;3.30;;
35294;SDS011;21413;48.032;7.764;2022-09-01T12:07:59;6.00;;;3.30;;
35294;SDS011;21413;48.032;7.764;2022-09-01T12:13:09;3.50;;;3.40;;
35294;SDS011;21413;48.032;7.764;2022-09-01T12:15:36;3.40;;;3.30;;
35294;SDS011;21413;48.032;7.764;2022-09-01T12:18:11;3.67;;;3.47;;
35294;SDS011;21413;48.032;7.764;2022-09-01T12:20:38;3.63;;;3.53;;
35294;SDS011;21413;48.032;7.764;2022-09-01T12:23:14;3.20;;;3.10;;
35294;SDS011;21413;48.032;7.764;2022-09-01T12:25:41;3.43;;;3.33;;
35294;SDS011;21413;48.032;7.764;2022-09-01T12:28:08;3.23;;;3.23;;
35294;SDS011;21413;48.032;7.764;2022-09-01T12:30:35;3.47;;;3.37;;
35294;SDS011;21413;48.032;7.764;2022-09-01T12:33:04;4.70;;;3.33;;
35294;SDS011;21413;48.032;7.764;2022-09-01T12:35:30;3.50;;;3.40;;
35294;SDS011;21413;48.032;7.764;2022-09-01T12:40:41;2.67;;;2.67;;
35294;SDS011;21413;48.032;7.764;2022-09-01T12:43:06;2.90;;;2.57;;
35294;SDS011;21413;48.032;7.764;2022-09-01T12:45:37;3.07;;;2.80;;
35294;SDS011;21413;48.032;7.764;2022-09-01T12:48:03;3.47;;;3.27;;
35294;SDS011;21413;48.032;7.764;2022-09-01T12:52:56;2.90;;;2.80;;
35294;SDS011;21413;48.032;7.764;2022-09-01T12:55:29;2.80;;;2.70;;
35294;SDS011;21413;48.032;7.764;2022-09-01T12:57:56;2.40;;;2.40;;
35294;SDS011;21413;48.032;7.764;2022-09-01T13:00:24;2.60;;;2.60;;
35294;SDS011;21413;48.032;7.764;2022-09-01T13:03:02;2.83;;;2.77;;
35294;SDS011;21413;48.032;7.764;2022-09-01T13:05:36;3.23;;;2.67;;
35294;SDS011;21413;48.032;7.764;2022-09-01T13:08:05;3.43;;;3.20;;
35294;SDS011;21413;48.032;7.764;2022-09-01T13:10:54;3.47;;;2.93;;
35294;SDS011;21413;48.032;7.764;2022-09-01T13:13:18;3.23;;;3.23;;
35294;SDS011;21413;48.032;7.764;2022-09-01T13:15:46;2.47;;;2.47;;
35294;SDS011;21413;48.032;7.764;2022-09-01T13:18:13;2.20;;;2.20;;
35294;SDS011;21413;48.032;7.764;2022-09-01T13:20:39;2.73;;;2.30;;
35294;SDS011;21413;48.032;7.764;2022-09-01T13:23:06;2.70;;;2.60;;
35294;SDS011;21413;48.032;7.764;2022-09-01T13:25:32;2.77;;;2.77;;
35294;SDS011;21413;48.032;7.764;2022-09-01T13:27:58;2.17;;;2.17;;
35294;SDS011;21413;48.032;7.764;2022-09-01T13:30:26;2.83;;;2.83;;
35294;SDS011;21413;48.032;7.764;2022-09-01T13:32:54;2.80;;;2.70;;
35294;SDS011;21413;48.032;7.764;2022-09-01T13:35:20;2.50;;;2.50;;
35294;SDS011;21413;48.032;7.764;2022-09-01T13:37:47;3.80;;;2.10;;
35294;SDS011;21413;48.032;7.764;2022-09-01T13:40:14;3.00;;;2.90;;
35294;SDS011;21413;48.032;7.764;2022-09-01T13:42:43;2.47;;;2.37;;
35294;SDS011;21413;48.032;7.764;2022-09-01T13:45:10;7.37;;;2.20;;
35294;SDS011;21413;48.032;7.764;2022-09-01T13:47:41;2.23;;;2.13;;
35294;SDS011;21413;48.032;7.764;2022-09-01T13:50:08;3.07;;;2.33;;
35294;SDS011;21413;48.032;7.764;2022-09-01T13:52:35;2.43;;;2.43;;
35294;SDS011;21413;48.032;7.764;2022-09-01T13:55:01;2.80;;;2.70;;
35294;SDS011;21413;48.032;7.764;2022-09-01T13:57:27;2.53;;;2.43;;
35294;SDS011;21413;48.032;7.764;2022-09-01T13:59:54;2.40;;;2.40;;
35294;SDS011;21413;48.032;7.764;2022-09-01T14:02:21;2.37;;;2.27;;
35294;SDS011;21413;48.032;7.764;2022-09-01T14:04:47;2.40;;;2.20;;
35294;SDS011;21413;48.032;7.764;2022-09-01T14:07:13;2.20;;;2.10;;
35294;SDS011;21413;48.032;7.764;2022-09-01T14:09:40;2.40;;;1.90;;
35294;SDS011;21413;48.032;7.764;2022-09-01T14:12:06;2.13;;;2.03;;
35294;SDS011;21413;48.032;7.764;2022-09-01T14:14:32;1.83;;;1.83;;
35294;SDS011;21413;48.032;7.764;2022-09-01T14:16:58;2.10;;;2.10;;
35294;SDS011;21413;48.032;7.764;2022-09-01T14:19:25;1.77;;;1.77;;
35294;SDS011;21413;48.032;7.764;2022-09-01T14:21:52;1.80;;;1.80;;
35294;SDS011;21413;48.032;7.764;2022-09-01T14:24:18;1.90;;;1.80;;
35294;SDS011;21413;48.032;7.764;2022-09-01T14:26:45;1.70;;;1.70;;
35294;SDS011;21413;48.032;7.764;2022-09-01T14:29:11;2.23;;;1.80;;
35294;SDS011;21413;48.032;7.764;2022-09-01T14:31:37;1.70;;;1.70;;
35294;SDS011;21413;48.032;7.764;2022-09-01T14:34:03;1.80;;;1.80;;
35294;SDS011;21413;48.032;7.764;2022-09-01T14:36:30;4.40;;;1.60;;
35294;SDS011;21413;48.032;7.764;2022-09-01T14:38:56;1.53;;;1.53;;
35294;SDS011;21413;48.032;7.764;2022-09-01T14:41:23;4.10;;;1.80;;
35294;SDS011;21413;48.032;7.764;2022-09-01T14:43:52;2.27;;;2.17;;
35294;SDS011;21413;48.032;7.764;2022-09-01T14:46:18;2.17;;;2.17;;
35294;SDS011;21413;48.032;7.764;2022-09-01T14:48:45;2.50;;;1.77;;
35294;SDS011;21413;48.032;7.764;2022-09-01T14:51:33;2.27;;;2.17;;
35294;SDS011;21413;48.032;7.764;2022-09-01T14:54:00;1.80;;;1.80;;
35294;SDS011;21413;48.032;7.764;2022-09-01T14:56:26;2.30;;;2.20;;
35294;SDS011;21413;48.032;7.764;2022-09-01T14:58:52;1.90;;;1.80;;
35294;SDS011;21413;48.032;7.764;2022-09-01T15:01:24;2.60;;;2.10;;
35294;SDS011;21413;48.032;7.764;2022-09-01T15:03:50;2.10;;;2.10;;
35294;SDS011;21413;48.032;7.764;2022-09-01T15:06:17;1.80;;;1.70;;
35294;SDS011;21413;48.032;7.764;2022-09-01T15:08:44;1.90;;;1.90;;
35294;SDS011;21413;48.032;7.764;2022-09-01T15:11:18;3.60;;;1.90;;
35294;SDS011;21413;48.032;7.764;2022-09-01T15:13:45;1.93;;;1.93;;
35294;SDS011;21413;48.032;7.764;2022-09-01T15:16:15;1.80;;;1.80;;
35294;SDS011;21413;48.032;7.764;2022-09-01T15:18:42;2.53;;;2.00;;
35294;SDS011;21413;48.032;7.764;2022-09-01T15:21:16;1.70;;;1.70;;
35294;SDS011;21413;48.032;7.764;2022-09-01T15:23:42;2.10;;;2.00;;
35294;SDS011;21413;48.032;7.764;2022-09-01T15:26:08;1.60;;;1.60;;
35294;SDS011;21413;48.032;7.764;2022-09-01T15:28:34;2.07;;;1.97;;
35294;SDS011;21413;48.032;7.764;2022-09-01T15:31:00;2.10;;;1.50;;
35294;SDS011;21413;48.032;7.764;2022-09-01T15:33:26;1.40;;;1.40;;
35294;SDS011;21413;48.032;7.764;2022-09-01T15:35:52;1.40;;;1.40;;
35294;SDS011;21413;48.032;7.764;2022-09-01T15:38:18;1.70;;;1.70;;
35294;SDS011;21413;48.032;7.764;2022-09-01T15:40:45;1.50;;;1.40;;